Terminal Aerodrome Forecast
Issued by NWS

Home | Current Version | Previous Version | Text Only | Print | Product List | Glossary Off
Versions: 1 2 3 4 5 6 7 8 9 10 11 12 13 14 15 16 17 18 19 20 21

387
FTUS41 KCLE 221423 AAA
TAFFDY
TAF AMD
KFDY 221423Z 2214/2312 21008KT 3SM BR OVC025
     FM221600 21008KT P6SM BKN035
     FM230300 20009KT 6SM BR OVC025
     FM230900 20010KT 4SM BR OVC010=

USA.gov is the U.S. government's official web portal to all federal, state and local government web resources and services.